Time,TemperatureF,DewpointF,PressureIn,WindDirection,WindDirectionDegrees,WindSpeedMPH,WindSpeedGustMPH,Humidity,HourlyPrecipIn,Conditions,Clouds,dailyrainin,SoftwareType,DateUTC
2013-04-02 00:02:00,45.7,26.6,29.41,NNE,25,7.1,12.1,47,0.00,,,0.00,WSDL version 426,2013-04-02 05:02:00,
2013-04-02 00:07:00,45.7,26.4,29.41,NE,53,9.0,14.5,46,0.00,,,0.00,WSDL version 426,2013-04-02 05:07:00,
2013-04-02 00:13:00,45.7,26.1,29.41,NNE,23,8.7,15.2,46,0.00,,,0.00,WSDL version 426,2013-04-02 05:13:00,
2013-04-02 00:18:00,45.7,26.1,29.41,NE,35,7.8,15.2,46,0.00,,,0.00,WSDL version 426,2013-04-02 05:18:00,
2013-04-02 00:23:00,45.7,26.0,29.41,NNE,23,7.0,13.2,45,0.00,,,0.00,WSDL version 426,2013-04-02 05:23:00,
2013-04-02 00:28:00,45.6,26.0,29.41,NE,45,8.8,17.0,46,0.00,,,0.00,WSDL version 426,2013-04-02 05:28:00,
2013-04-02 00:33:00,45.5,25.4,29.41,NE,43,7.9,17.0,45,0.00,,,0.00,WSDL version 426,2013-04-02 05:33:00,
2013-04-02 00:38:00,45.5,25.4,29.41,NNE,28,6.6,14.8,45,0.00,,,0.00,WSDL version 426,2013-04-02 05:38:00,
2013-04-02 00:43:00,45.3,24.9,29.41,NNE,18,7.4,14.8,44,0.00,,,0.00,WSDL version 426,2013-04-02 05:43:00,
2013-04-02 00:48:00,45.3,24.7,29.41,NE,34,8.1,12.8,44,0.00,,,0.00,WSDL version 426,2013-04-02 05:48:00,
2013-04-02 00:53:00,45.3,24.7,29.41,North,8,9.4,13.2,44,0.00,,,0.00,WSDL version 426,2013-04-02 05:53:00,
2013-04-02 00:58:00,45.3,24.6,29.41,NE,34,8.1,16.1,44,0.00,,,0.00,WSDL version 426,2013-04-02 05:58:00,
2013-04-02 01:03:00,45.1,24.5,29.41,NNE,20,9.3,16.1,44,0.00,,,0.00,WSDL version 426,2013-04-02 06:03:00,
2013-04-02 01:08:00,45.1,24.7,29.41,NNE,29,7.8,14.5,45,0.00,,,0.00,WSDL version 426,2013-04-02 06:08:00,
2013-04-02 01:13:00,45.1,25.0,29.41,NNE,31,9.0,14.5,45,0.00,,,0.00,WSDL version 426,2013-04-02 06:13:00,
2013-04-02 01:18:00,45.1,25.1,29.41,NNE,25,6.7,14.5,45,0.00,,,0.00,WSDL version 426,2013-04-02 06:18:00,
2013-04-02 01:23:00,45.1,25.1,29.41,NNE,25,8.0,13.4,45,0.00,,,0.00,WSDL version 426,2013-04-02 06:23:00,
2013-04-02 01:28:00,45.0,25.0,29.41,NNE,28,7.3,13.2,45,0.00,,,0.00,WSDL version 426,2013-04-02 06:28:00,
2013-04-02 01:33:00,45.0,24.9,29.41,NNE,25,7.3,13.0,45,0.00,,,0.00,WSDL version 426,2013-04-02 06:33:00,
2013-04-02 01:38:00,44.8,24.8,29.41,NNE,18,6.5,13.2,45,0.00,,,0.00,WSDL version 426,2013-04-02 06:38:00,
2013-04-02 01:43:00,44.8,24.7,29.41,NNE,23,6.7,13.2,45,0.00,,,0.00,WSDL version 426,2013-04-02 06:43:00,
2013-04-02 01:48:00,44.8,24.7,29.41,NNE,20,7.6,13.0,45,0.00,,,0.00,WSDL version 426,2013-04-02 06:48:00,
2013-04-02 01:53:00,44.8,24.7,29.41,NNE,20,7.0,12.8,45,0.00,,,0.00,WSDL version 426,2013-04-02 06:53:00,
2013-04-02 01:58:00,44.8,24.6,29.41,NNE,20,8.1,12.5,45,0.00,,,0.00,WSDL version 426,2013-04-02 06:58:00,
2013-04-02 02:03:00,44.8,24.7,29.41,NNE,23,7.0,12.5,44,0.00,,,0.00,WSDL version 426,2013-04-02 07:03:00,
2013-04-02 02:08:00,44.8,24.7,29.41,NNE,14,6.0,10.7,45,0.00,,,0.00,WSDL version 426,2013-04-02 07:08:00,
2013-04-02 02:13:00,44.8,24.5,29.38,NNE,33,8.4,12.8,44,0.00,,,0.00,WSDL version 426,2013-04-02 07:13:00,
2013-04-02 02:18:00,44.8,24.2,29.38,North,5,6.4,14.8,44,0.00,,,0.00,WSDL version 426,2013-04-02 07:18:00,
2013-04-02 02:23:00,44.8,24.3,29.38,NE,35,7.0,14.8,45,0.00,,,0.00,WSDL version 426,2013-04-02 07:23:00,
2013-04-02 02:28:00,44.8,24.7,29.41,North,3,7.7,13.2,45,0.00,,,0.00,WSDL version 426,2013-04-02 07:28:00,
2013-04-02 02:33:00,44.7,24.2,29.41,North,354,6.7,13.2,44,0.00,,,0.00,WSDL version 426,2013-04-02 07:33:00,
2013-04-02 02:38:00,44.6,24.0,29.41,NNE,20,7.2,12.5,44,0.00,,,0.00,WSDL version 426,2013-04-02 07:38:00,
2013-04-02 02:43:00,44.6,24.5,29.41,NNE,14,7.9,12.8,44,0.00,,,0.00,WSDL version 426,2013-04-02 07:43:00,
2013-04-02 02:48:00,44.6,24.0,29.41,NNE,23,9.3,16.1,44,0.00,,,0.00,WSDL version 426,2013-04-02 07:48:00,
2013-04-02 02:53:00,44.6,24.0,29.41,NNE,28,8.0,17.7,44,0.00,,,0.00,WSDL version 426,2013-04-02 07:53:00,
2013-04-02 02:58:00,44.6,24.0,29.38,NNE,23,8.3,17.7,44,0.00,,,0.00,WSDL version 426,2013-04-02 07:58:00,
2013-04-02 03:03:00,44.6,24.0,29.38,NNE,13,8.2,15.2,44,0.00,,,0.00,WSDL version 426,2013-04-02 08:03:00,
2013-04-02 03:08:00,44.6,23.9,29.38,NE,45,10.0,15.2,43,0.00,,,0.00,WSDL version 426,2013-04-02 08:08:00,
2013-04-02 03:13:00,44.6,23.8,29.38,NNE,23,8.8,14.1,44,0.00,,,0.00,WSDL version 426,2013-04-02 08:13:00,
2013-04-02 03:18:00,44.5,23.6,29.38,NNE,25,8.9,15.4,43,0.00,,,0.00,WSDL version 426,2013-04-02 08:18:00,
2013-04-02 03:24:00,44.4,23.9,29.38,NNE,18,7.9,15.4,44,0.00,,,0.00,WSDL version 426,2013-04-02 08:24:00,
2013-04-02 03:29:00,44.4,23.9,29.38,NNE,19,9.1,14.8,44,0.00,,,0.00,WSDL version 426,2013-04-02 08:29:00,
2013-04-02 03:34:00,44.4,23.9,29.38,NNE,25,6.6,14.8,44,0.00,,,0.00,WSDL version 426,2013-04-02 08:34:00,
2013-04-02 03:39:00,44.4,23.9,29.38,NE,45,9.5,14.8,44,0.00,,,0.00,WSDL version 426,2013-04-02 08:39:00,
2013-04-02 03:44:00,44.2,23.9,29.38,NNE,33,7.7,14.8,45,0.00,,,0.00,WSDL version 426,2013-04-02 08:44:00,
2013-04-02 03:49:00,44.2,24.3,29.38,NNE,23,6.7,14.5,45,0.00,,,0.00,WSDL version 426,2013-04-02 08:49:00,
2013-04-02 03:54:00,44.2,24.3,29.38,NE,40,8.3,18.8,46,0.00,,,0.00,WSDL version 426,2013-04-02 08:54:00,
2013-04-02 03:59:00,44.1,24.9,29.38,NNE,13,8.5,18.8,46,0.00,,,0.00,WSDL version 426,2013-04-02 08:59:00,
2013-04-02 04:04:00,44.1,25.0,29.38,NNE,23,7.9,16.6,47,0.00,,,0.00,WSDL version 426,2013-04-02 09:04:00,
2013-04-02 04:09:00,44.1,25.6,29.38,NE,35,10.0,14.5,48,0.00,,,0.00,WSDL version 426,2013-04-02 09:09:00,
2013-04-02 04:14:00,43.9,25.9,29.38,NNE,25,7.4,14.5,49,0.00,,,0.00,WSDL version 426,2013-04-02 09:14:00,
2013-04-02 04:19:00,43.7,26.3,29.38,NNE,18,8.0,13.2,50,0.00,,,0.00,WSDL version 426,2013-04-02 09:19:00,
2013-04-02 04:24:00,43.6,26.3,29.38,NNE,33,7.5,15.2,51,0.00,,,0.00,WSDL version 426,2013-04-02 09:24:00,
2013-04-02 04:29:00,43.4,26.6,29.38,NNE,17,7.7,15.2,52,0.00,,,0.00,WSDL version 426,2013-04-02 09:29:00,
2013-04-02 04:34:00,43.3,26.9,29.38,NNE,20,8.7,15.2,52,0.00,,,0.00,WSDL version 426,2013-04-02 09:34:00,
2013-04-02 04:39:00,43.3,26.8,29.38,NNE,28,7.3,15.4,52,0.00,,,0.00,WSDL version 426,2013-04-02 09:39:00,
2013-04-02 04:44:00,43.2,26.7,29.41,NNE,18,5.4,15.4,52,0.00,,,0.00,WSDL version 426,2013-04-02 09:44:00,
2013-04-02 04:49:00,43.2,27.0,29.41,NNE,30,7.5,10.5,53,0.00,,,0.00,WSDL version 426,2013-04-02 09:49:00,
2013-04-02 04:54:00,43.1,27.9,29.41,NNE,31,8.8,12.8,56,0.00,,,0.00,WSDL version 426,2013-04-02 09:54:00,
2013-04-02 04:59:00,42.9,28.9,29.38,NE,35,7.2,12.8,58,0.00,,,0.00,WSDL version 426,2013-04-02 09:59:00,
2013-04-02 05:04:00,42.5,30.0,29.38,NE,34,10.2,13.0,62,0.00,,,0.00,WSDL version 426,2013-04-02 10:04:00,
2013-04-02 05:09:00,42.2,30.7,29.38,NE,38,8.4,13.0,64,0.00,,,0.00,WSDL version 426,2013-04-02 10:09:00,
2013-04-02 05:14:00,42.0,31.1,29.38,NNE,28,11.2,19.9,65,0.00,,,0.00,WSDL version 426,2013-04-02 10:14:00,
2013-04-02 05:19:00,41.8,30.9,29.38,NE,38,11.7,19.9,65,0.00,,,0.00,WSDL version 426,2013-04-02 10:19:00,
2013-04-02 05:24:00,41.6,31.1,29.38,NE,38,6.6,19.9,66,0.00,,,0.00,WSDL version 426,2013-04-02 10:24:00,
2013-04-02 05:30:00,41.5,30.7,29.38,NE,35,11.0,19.7,65,0.00,,,0.00,WSDL version 426,2013-04-02 10:30:00,
2013-04-02 05:35:00,41.5,30.7,29.38,NNE,20,5.6,19.7,65,0.00,,,0.00,WSDL version 426,2013-04-02 10:35:00,
2013-04-02 05:40:00,41.5,30.7,29.38,NNE,23,6.8,15.9,65,0.00,,,0.00,WSDL version 426,2013-04-02 10:40:00,
2013-04-02 05:45:00,41.5,31.0,29.41,NNE,18,9.9,16.1,65,0.00,,,0.00,WSDL version 426,2013-04-02 10:45:00,
2013-04-02 05:50:00,41.4,31.0,29.41,NNE,25,7.4,16.1,67,0.00,,,0.00,WSDL version 426,2013-04-02 10:50:00,
2013-04-02 05:55:00,41.2,31.4,29.41,NNE,15,6.9,12.8,68,0.00,,,0.00,WSDL version 426,2013-04-02 10:55:00,
2013-04-02 06:00:00,41.0,31.5,29.41,NNE,28,5.7,12.8,69,0.00,,,0.00,WSDL version 426,2013-04-02 11:00:00,
2013-04-02 06:05:00,41.0,31.9,29.41,NNE,13,7.0,15.9,71,0.04,,,0.04,WSDL version 426,2013-04-02 11:05:00,
2013-04-02 06:10:00,40.8,32.1,29.41,NNE,25,7.6,15.9,71,0.04,,,0.04,WSDL version 426,2013-04-02 11:10:00,
2013-04-02 06:15:00,40.6,32.2,29.44,NNE,28,7.3,11.0,72,0.04,,,0.04,WSDL version 426,2013-04-02 11:15:00,
2013-04-02 06:20:00,40.6,32.5,29.44,NNE,20,9.2,15.4,73,0.08,,,0.08,WSDL version 426,2013-04-02 11:20:00,
2013-04-02 06:25:00,40.5,32.5,29.44,NNE,23,6.9,15.4,73,0.08,,,0.08,WSDL version 426,2013-04-02 11:25:00,
2013-04-02 06:30:00,40.4,32.7,29.44,NE,40,6.6,12.8,74,0.08,,,0.08,WSDL version 426,2013-04-02 11:30:00,
2013-04-02 06:35:00,40.2,33.0,29.44,NE,39,11.5,16.1,76,0.08,,,0.08,WSDL version 426,2013-04-02 11:35:00,
2013-04-02 06:40:00,40.0,33.3,29.44,NNE,33,10.5,17.4,77,0.12,,,0.12,WSDL version 426,2013-04-02 11:40:00,
2013-04-02 06:45:00,39.9,33.3,29.41,NNE,25,7.7,17.4,77,0.12,,,0.12,WSDL version 426,2013-04-02 11:45:00,
2013-04-02 06:50:00,39.9,33.4,29.41,NNE,20,7.9,14.3,77,0.12,,,0.12,WSDL version 426,2013-04-02 11:50:00,
2013-04-02 06:55:00,39.8,33.3,29.41,NNE,30,7.7,14.8,78,0.12,,,0.12,WSDL version 426,2013-04-02 11:55:00,
2013-04-02 07:00:00,39.9,33.5,29.44,ENE,62,7.9,14.8,78,0.12,,,0.12,WSDL version 426,2013-04-02 12:00:00,
2013-04-02 07:05:00,39.9,33.8,29.44,NE,38,10.9,15.4,79,0.08,,,0.12,WSDL version 426,2013-04-02 12:05:00,
2013-04-02 07:10:00,39.7,33.8,29.44,NE,34,7.9,15.4,79,0.08,,,0.12,WSDL version 426,2013-04-02 12:10:00,
2013-04-02 07:15:00,39.7,34.0,29.41,NNE,30,8.0,14.5,80,0.08,,,0.12,WSDL version 426,2013-04-02 12:15:00,
2013-04-02 07:20:00,39.6,34.0,29.41,NNE,20,7.0,14.5,80,0.09,,,0.17,WSDL version 426,2013-04-02 12:20:00,
2013-04-02 07:25:00,39.6,34.3,29.41,NNE,33,8.9,14.5,81,0.09,,,0.17,WSDL version 426,2013-04-02 12:25:00,
2013-04-02 07:30:00,39.6,34.0,29.44,NNE,25,6.8,17.0,80,0.09,,,0.17,WSDL version 426,2013-04-02 12:30:00,
2013-04-02 07:36:00,39.7,34.0,29.44,North,360,8.1,17.0,80,0.09,,,0.17,WSDL version 426,2013-04-02 12:36:00,
2013-04-02 07:42:00,39.7,33.8,29.44,NNE,28,4.8,12.5,79,0.05,,,0.17,WSDL version 426,2013-04-02 12:42:00,
2013-04-02 07:47:00,39.8,33.9,29.44,NNE,28,7.3,10.3,80,0.05,,,0.17,WSDL version 426,2013-04-02 12:47:00,
2013-04-02 07:52:00,39.9,33.7,29.44,NNE,20,7.0,19.5,78,0.05,,,0.17,WSDL version 426,2013-04-02 12:52:00,
2013-04-02 07:57:00,39.9,33.4,29.47,NNE,15,6.0,19.5,77,0.05,,,0.17,WSDL version 426,2013-04-02 12:57:00,
2013-04-02 08:02:00,39.9,33.6,29.47,North,8,8.3,12.3,78,0.05,,,0.17,WSDL version 426,2013-04-02 13:02:00,
2013-04-02 08:08:00,39.9,33.6,29.47,NE,34,6.9,13.2,78,0.05,,,0.17,WSDL version 426,2013-04-02 13:08:00,
2013-04-02 08:13:00,39.9,33.9,29.47,NE,39,13.2,17.7,79,0.05,,,0.17,WSDL version 426,2013-04-02 13:13:00,
2013-04-02 08:18:00,39.9,33.6,29.47,NE,38,11.9,18.8,78,0.00,,,0.17,WSDL version 426,2013-04-02 13:18:00,
2013-04-02 08:23:00,39.9,33.5,29.47,NE,45,10.7,18.8,77,0.00,,,0.17,WSDL version 426,2013-04-02 13:23:00,
2013-04-02 08:28:00,39.7,33.3,29.47,NE,45,12.4,19.7,77,0.00,,,0.17,WSDL version 426,2013-04-02 13:28:00,
2013-04-02 08:33:00,39.7,33.4,29.47,NNE,33,9.5,19.7,78,0.00,,,0.17,WSDL version 426,2013-04-02 13:33:00,
2013-04-02 08:38:00,39.7,33.6,29.47,NNE,29,8.6,15.9,79,0.00,,,0.17,WSDL version 426,2013-04-02 13:38:00,
2013-04-02 08:43:00,39.7,34.2,29.47,NNE,30,7.6,15.9,81,0.00,,,0.17,WSDL version 426,2013-04-02 13:43:00,
2013-04-02 08:48:00,39.7,34.5,29.47,NE,34,7.7,14.8,82,0.00,,,0.17,WSDL version 426,2013-04-02 13:48:00,
2013-04-02 08:53:00,39.7,34.7,29.47,NE,35,7.6,13.0,82,0.00,,,0.17,WSDL version 426,2013-04-02 13:53:00,
2013-04-02 08:58:00,39.6,34.6,29.47,NE,39,12.6,18.8,82,0.00,,,0.17,WSDL version 426,2013-04-02 13:58:00,
2013-04-02 09:03:00,39.6,34.8,29.47,NE,40,9.8,18.8,83,0.00,,,0.17,WSDL version 426,2013-04-02 14:03:00,
2013-04-02 09:08:00,39.6,34.9,29.47,NE,43,9.6,15.4,83,0.00,,,0.17,WSDL version 426,2013-04-02 14:08:00,
2013-04-02 09:13:00,39.5,35.1,29.47,NE,38,9.3,15.4,83,0.00,,,0.17,WSDL version 426,2013-04-02 14:13:00,
2013-04-02 09:18:00,39.4,34.8,29.47,NE,43,10.0,18.1,83,0.00,,,0.17,WSDL version 426,2013-04-02 14:18:00,
2013-04-02 09:23:00,39.4,34.8,29.47,NE,39,8.2,18.1,83,0.00,,,0.17,WSDL version 426,2013-04-02 14:23:00,
2013-04-02 09:28:00,39.6,35.3,29.44,NE,35,10.9,15.7,84,0.00,,,0.17,WSDL version 426,2013-04-02 14:28:00,
2013-04-02 09:33:00,39.6,35.4,29.44,NE,42,11.8,16.3,86,0.00,,,0.17,WSDL version 426,2013-04-02 14:33:00,
2013-04-02 09:38:00,39.6,35.6,29.44,NE,35,12.0,16.6,86,0.00,,,0.17,WSDL version 426,2013-04-02 14:38:00,
2013-04-02 09:44:00,39.6,35.7,29.44,NNE,32,9.4,17.4,86,0.00,,,0.17,WSDL version 426,2013-04-02 14:44:00,
2013-04-02 09:49:00,39.7,35.9,29.44,NE,45,10.2,17.4,87,0.00,,,0.17,WSDL version 426,2013-04-02 14:49:00,
2013-04-02 09:55:00,39.7,36.0,29.44,NE,34,9.2,17.0,87,0.00,,,0.17,WSDL version 426,2013-04-02 14:55:00,
2013-04-02 10:00:00,39.7,36.1,29.44,NNE,30,10.8,17.2,87,0.00,,,0.17,WSDL version 426,2013-04-02 15:00:00,
2013-04-02 10:05:00,39.7,35.9,29.44,NE,37,11.4,17.2,86,0.03,,,0.20,WSDL version 426,2013-04-02 15:05:00,
2013-04-02 10:10:00,39.7,35.9,29.44,NE,48,11.0,17.2,87,0.03,,,0.20,WSDL version 426,2013-04-02 15:10:00,
2013-04-02 10:16:00,39.8,36.3,29.44,NE,39,11.3,19.2,88,0.03,,,0.20,WSDL version 426,2013-04-02 15:16:00,
2013-04-02 10:22:00,39.9,36.3,29.44,NE,51,9.5,19.2,87,0.03,,,0.20,WSDL version 426,2013-04-02 15:22:00,
2013-04-02 10:27:00,39.9,36.3,29.44,ENE,59,9.8,17.7,87,0.03,,,0.20,WSDL version 426,2013-04-02 15:27:00,
2013-04-02 10:33:00,39.9,36.3,29.44,NE,48,10.2,17.0,87,0.03,,,0.20,WSDL version 426,2013-04-02 15:33:00,
2013-04-02 10:38:00,40.1,36.5,29.44,ENE,58,9.9,18.1,87,0.03,,,0.20,WSDL version 426,2013-04-02 15:38:00,
2013-04-02 10:43:00,40.1,36.5,29.44,NE,51,9.7,18.1,87,0.03,,,0.20,WSDL version 426,2013-04-02 15:43:00,
2013-04-02 10:48:00,40.3,36.6,29.44,NE,40,8.7,15.4,87,0.03,,,0.20,WSDL version 426,2013-04-02 15:48:00,
2013-04-02 10:53:00,40.3,36.6,29.44,NE,55,10.8,17.2,87,0.03,,,0.20,WSDL version 426,2013-04-02 15:53:00,
2013-04-02 10:59:00,40.3,36.6,29.44,NE,43,7.7,17.4,87,0.03,,,0.20,WSDL version 426,2013-04-02 15:59:00,
2013-04-02 11:04:00,40.3,36.7,29.44,NE,48,9.1,17.4,87,0.00,,,0.20,WSDL version 426,2013-04-02 16:04:00,
2013-04-02 11:09:00,40.5,36.8,29.44,NE,48,8.6,13.2,87,0.00,,,0.20,WSDL version 426,2013-04-02 16:09:00,
2013-04-02 11:14:00,40.5,36.8,29.44,NE,43,7.1,13.2,87,0.00,,,0.20,WSDL version 426,2013-04-02 16:14:00,
2013-04-02 11:19:00,40.5,36.8,29.44,NE,34,7.3,12.8,87,0.00,,,0.20,WSDL version 426,2013-04-02 16:19:00,
2013-04-02 11:24:00,40.5,36.8,29.44,NE,43,8.0,12.8,86,0.00,,,0.20,WSDL version 426,2013-04-02 16:24:00,
2013-04-02 11:30:00,40.5,36.5,29.44,NE,48,7.7,12.8,86,0.00,,,0.20,WSDL version 426,2013-04-02 16:30:00,
2013-04-02 11:35:00,40.5,36.5,29.44,NE,53,5.5,12.3,86,0.00,,,0.20,WSDL version 426,2013-04-02 16:35:00,
2013-04-02 11:41:00,40.6,36.8,29.47,ENE,68,7.5,13.9,87,0.00,,,0.20,WSDL version 426,2013-04-02 16:41:00,
2013-04-02 11:47:00,40.5,36.8,29.47,ENE,59,5.4,10.5,87,0.05,,,0.25,WSDL version 426,2013-04-02 16:47:00,
2013-04-02 11:53:00,40.5,36.8,29.47,NE,45,5.1,9.6,87,0.05,,,0.25,WSDL version 426,2013-04-02 16:53:00,
2013-04-02 11:59:00,40.6,36.9,29.47,NE,53,5.1,10.1,87,0.09,,,0.29,WSDL version 426,2013-04-02 16:59:00,
2013-04-02 12:05:00,40.5,36.8,29.47,NE,38,3.9,10.1,87,0.13,,,0.33,WSDL version 426,2013-04-02 17:05:00,
2013-04-02 12:10:00,40.5,36.9,29.47,NNE,33,6.0,8.5,88,0.13,,,0.33,WSDL version 426,2013-04-02 17:10:00,
2013-04-02 12:15:00,40.5,37.1,29.47,NNE,32,4.2,7.8,88,0.17,,,0.37,WSDL version 426,2013-04-02 17:15:00,
2013-04-02 12:21:00,40.5,37.4,29.47,NNE,23,5.8,8.5,89,0.17,,,0.37,WSDL version 426,2013-04-02 17:21:00,
2013-04-02 12:26:00,40.5,37.4,29.47,NE,45,3.9,8.5,89,0.21,,,0.41,WSDL version 426,2013-04-02 17:26:00,
2013-04-02 12:32:00,40.6,37.6,29.47,NNE,25,4.9,7.4,89,0.21,,,0.41,WSDL version 426,2013-04-02 17:32:00,
2013-04-02 12:37:00,40.6,37.9,29.47,NNE,25,3.7,7.4,90,0.21,,,0.41,WSDL version 426,2013-04-02 17:37:00,
2013-04-02 12:44:00,40.6,37.9,29.50,NE,34,5.4,8.5,90,0.16,,,0.41,WSDL version 426,2013-04-02 17:44:00,
2013-04-02 12:49:00,40.7,38.3,29.50,NE,42,5.5,9.8,91,0.20,,,0.45,WSDL version 426,2013-04-02 17:49:00,
2013-04-02 12:54:00,40.8,38.4,29.50,NNE,23,7.6,10.3,91,0.20,,,0.45,WSDL version 426,2013-04-02 17:54:00,
2013-04-02 12:59:00,40.9,38.7,29.47,NE,37,6.8,10.3,92,0.16,,,0.45,WSDL version 426,2013-04-02 17:59:00,
2013-04-02 13:04:00,41.0,38.9,29.47,NE,56,9.1,12.8,92,0.12,,,0.45,WSDL version 426,2013-04-02 18:04:00,
2013-04-02 13:09:00,41.2,39.1,29.47,NE,37,6.1,12.8,92,0.12,,,0.45,WSDL version 426,2013-04-02 18:09:00,
2013-04-02 13:15:00,41.2,39.1,29.44,NNE,28,5.6,12.1,92,0.08,,,0.45,WSDL version 426,2013-04-02 18:15:00,
2013-04-02 13:20:00,41.2,39.1,29.44,NNE,25,6.6,12.5,92,0.13,,,0.50,WSDL version 426,2013-04-02 18:20:00,
2013-04-02 13:25:00,41.2,39.1,29.44,NE,37,7.3,12.5,92,0.09,,,0.50,WSDL version 426,2013-04-02 18:25:00,
2013-04-02 13:30:00,41.2,38.8,29.44,NE,43,6.6,12.1,91,0.09,,,0.50,WSDL version 426,2013-04-02 18:30:00,
2013-04-02 13:35:00,41.4,39.0,29.44,ENE,65,8.6,14.5,91,0.09,,,0.50,WSDL version 426,2013-04-02 18:35:00,
2013-04-02 13:40:00,41.4,39.0,29.44,NE,38,11.3,15.4,91,0.09,,,0.50,WSDL version 426,2013-04-02 18:40:00,
2013-04-02 13:47:00,41.4,39.0,29.41,NE,34,5.6,15.9,91,0.05,,,0.50,WSDL version 426,2013-04-02 18:47:00,
2013-04-02 13:52:00,41.5,39.0,29.41,NE,34,9.5,14.5,90,0.05,,,0.50,WSDL version 426,2013-04-02 18:52:00,
2013-04-02 13:58:00,41.6,38.9,29.44,NE,35,5.5,14.8,90,0.05,,,0.50,WSDL version 426,2013-04-02 18:58:00,
2013-04-02 14:03:00,41.7,39.2,29.44,NNE,23,5.5,14.8,90,0.05,,,0.50,WSDL version 426,2013-04-02 19:03:00,
2013-04-02 14:08:00,41.7,39.3,29.44,NNE,33,5.7,12.3,90,0.05,,,0.50,WSDL version 426,2013-04-02 19:08:00,
2013-04-02 14:14:00,41.8,39.1,29.44,NNE,23,3.9,8.9,90,0.05,,,0.50,WSDL version 426,2013-04-02 19:14:00,
2013-04-02 14:19:00,41.9,39.2,29.44,NE,40,5.6,12.3,90,0.00,,,0.50,WSDL version 426,2013-04-02 19:19:00,
2013-04-02 14:24:00,41.7,39.0,29.44,ENE,65,7.8,12.5,90,0.00,,,0.50,WSDL version 426,2013-04-02 19:24:00,
2013-04-02 14:29:00,41.7,39.0,29.44,ENE,58,8.3,12.5,90,0.00,,,0.50,WSDL version 426,2013-04-02 19:29:00,
2013-04-02 14:35:00,41.7,39.0,29.44,ENE,62,5.8,12.1,90,0.00,,,0.50,WSDL version 426,2013-04-02 19:35:00,
2013-04-02 14:40:00,41.7,39.3,29.44,NE,55,7.7,10.7,91,0.04,,,0.54,WSDL version 426,2013-04-02 19:40:00,
2013-04-02 14:45:00,41.7,39.3,29.41,NE,42,8.7,15.2,91,0.04,,,0.54,WSDL version 426,2013-04-02 19:45:00,
2013-04-02 14:50:00,41.7,39.5,29.41,NNE,28,7.1,15.2,92,0.04,,,0.54,WSDL version 426,2013-04-02 19:50:00,
2013-04-02 14:57:00,41.7,39.6,29.44,NE,48,7.6,13.2,92,0.08,,,0.58,WSDL version 426,2013-04-02 19:57:00,
2013-04-02 15:02:00,42.0,40.0,29.44,ENE,59,7.3,13.2,93,0.08,,,0.58,WSDL version 426,2013-04-02 20:02:00,
2013-04-02 15:07:00,42.3,40.5,29.44,NE,40,6.4,12.1,93,0.08,,,0.58,WSDL version 426,2013-04-02 20:07:00,
2013-04-02 15:13:00,42.3,40.5,29.44,NNE,28,6.0,10.1,92,0.08,,,0.58,WSDL version 426,2013-04-02 20:13:00,
2013-04-02 15:19:00,42.3,40.2,29.44,NNE,25,5.6,10.7,92,0.08,,,0.58,WSDL version 426,2013-04-02 20:19:00,
2013-04-02 15:24:00,42.3,40.0,29.44,NNE,16,4.6,10.7,91,0.08,,,0.58,WSDL version 426,2013-04-02 20:24:00,
2013-04-02 15:29:00,42.1,39.7,29.44,NE,38,6.6,11.2,91,0.08,,,0.58,WSDL version 426,2013-04-02 20:29:00,
2013-04-02 15:34:00,42.0,39.4,29.44,NNE,25,8.0,12.3,90,0.08,,,0.58,WSDL version 426,2013-04-02 20:34:00,
2013-04-02 15:39:00,41.9,39.2,29.44,NE,40,6.3,13.2,90,0.04,,,0.58,WSDL version 426,2013-04-02 20:39:00,
2013-04-02 15:44:00,41.8,39.0,29.44,NE,37,9.3,14.5,90,0.04,,,0.58,WSDL version 426,2013-04-02 20:44:00,
2013-04-02 15:49:00,41.7,39.1,29.44,NE,35,7.7,14.5,91,0.04,,,0.58,WSDL version 426,2013-04-02 20:49:00,
2013-04-02 15:54:00,41.7,39.3,29.44,NE,40,5.5,13.0,91,0.04,,,0.62,WSDL version 426,2013-04-02 20:54:00,
2013-04-02 16:00:00,41.7,39.3,29.44,NE,56,5.6,8.7,91,0.04,,,0.62,WSDL version 426,2013-04-02 21:00:00,
2013-04-02 16:05:00,41.7,39.6,29.44,NE,45,6.0,10.1,92,0.04,,,0.62,WSDL version 426,2013-04-02 21:05:00,
2013-04-02 16:11:00,41.7,39.6,29.44,NNE,25,5.6,8.5,92,0.04,,,0.62,WSDL version 426,2013-04-02 21:11:00,
2013-04-02 16:17:00,41.7,39.6,29.44,NNE,25,6.3,10.3,92,0.04,,,0.62,WSDL version 426,2013-04-02 21:17:00,
2013-04-02 16:22:00,41.7,39.6,29.44,NE,38,5.7,11.0,92,0.08,,,0.66,WSDL version 426,2013-04-02 21:22:00,
2013-04-02 16:28:00,41.7,39.7,29.41,NE,40,9.5,14.1,93,0.08,,,0.66,WSDL version 426,2013-04-02 21:28:00,
2013-04-02 16:33:00,41.7,39.9,29.41,NE,37,7.3,14.5,93,0.08,,,0.66,WSDL version 426,2013-04-02 21:33:00,
2013-04-02 16:38:00,41.6,39.8,29.41,NE,42,10.9,14.8,93,0.08,,,0.66,WSDL version 426,2013-04-02 21:38:00,
2013-04-02 16:43:00,41.5,39.8,29.41,NNE,25,9.5,17.2,93,0.08,,,0.66,WSDL version 426,2013-04-02 21:43:00,
2013-04-02 16:49:00,41.5,39.8,29.41,NNE,31,7.7,17.2,93,0.04,,,0.66,WSDL version 426,2013-04-02 21:49:00,
2013-04-02 16:54:00,41.5,39.8,29.41,NNE,23,6.6,13.0,93,0.08,,,0.70,WSDL version 426,2013-04-02 21:54:00,
2013-04-02 16:59:00,41.5,39.8,29.41,NNE,20,8.3,10.5,93,0.08,,,0.70,WSDL version 426,2013-04-02 21:59:00,
2013-04-02 17:04:00,41.5,39.8,29.41,NNE,30,9.3,13.2,93,0.08,,,0.70,WSDL version 426,2013-04-02 22:04:00,
2013-04-02 17:09:00,41.5,39.8,29.41,NE,45,9.1,13.2,93,0.08,,,0.70,WSDL version 426,2013-04-02 22:09:00,
2013-04-02 17:14:00,41.5,39.8,29.41,NNE,32,7.7,13.2,93,0.08,,,0.70,WSDL version 426,2013-04-02 22:14:00,
2013-04-02 17:19:00,41.7,39.9,29.41,NE,34,9.3,13.2,93,0.04,,,0.70,WSDL version 426,2013-04-02 22:19:00,
2013-04-02 17:24:00,41.7,39.9,29.41,NE,43,9.2,13.2,93,0.04,,,0.70,WSDL version 426,2013-04-02 22:24:00,
2013-04-02 17:30:00,41.7,39.9,29.41,NE,43,9.0,13.0,93,0.04,,,0.70,WSDL version 426,2013-04-02 22:30:00,
2013-04-02 17:35:00,41.7,39.6,29.41,NE,38,8.4,14.3,92,0.04,,,0.70,WSDL version 426,2013-04-02 22:35:00,
2013-04-02 17:40:00,41.8,39.7,29.41,NE,48,8.7,15.4,92,0.04,,,0.70,WSDL version 426,2013-04-02 22:40:00,
2013-04-02 17:46:00,41.9,39.7,29.41,NE,37,7.4,15.4,91,0.04,,,0.70,WSDL version 426,2013-04-02 22:46:00,
2013-04-02 17:52:00,41.7,39.2,29.41,NE,39,9.8,15.9,90,0.00,,,0.70,WSDL version 426,2013-04-02 22:52:00,
2013-04-02 17:57:00,41.8,38.9,29.41,NE,42,10.0,15.9,89,0.00,,,0.70,WSDL version 426,2013-04-02 22:57:00,
2013-04-02 18:03:00,41.7,38.7,29.41,NE,53,10.2,15.4,89,0.00,,,0.70,WSDL version 426,2013-04-02 23:03:00,
2013-04-02 18:08:00,41.7,38.7,29.41,NE,53,10.2,15.4,89,0.00,,,0.70,WSDL version 426,2013-04-02 23:08:00,
2013-04-02 18:14:00,41.7,38.7,29.41,NE,40,9.2,14.3,89,0.00,,,0.70,WSDL version 426,2013-04-02 23:14:00,
2013-04-02 18:19:00,41.7,38.7,29.41,NNE,31,8.7,14.8,89,0.00,,,0.70,WSDL version 426,2013-04-02 23:19:00,
2013-04-02 18:25:00,41.7,38.7,29.41,NE,37,5.6,14.8,89,0.00,,,0.70,WSDL version 426,2013-04-02 23:25:00,
2013-04-02 18:30:00,41.7,38.7,29.41,NE,38,7.4,12.1,89,0.00,,,0.70,WSDL version 426,2013-04-02 23:30:00,
2013-04-02 18:35:00,41.7,38.7,29.41,NE,38,8.3,12.1,89,0.00,,,0.70,WSDL version 426,2013-04-02 23:35:00,
2013-04-02 18:41:00,41.7,38.7,29.44,NE,39,4.7,12.5,89,0.00,,,0.70,WSDL version 426,2013-04-02 23:41:00,
2013-04-02 18:46:00,41.7,38.7,29.44,NE,42,7.9,12.5,89,0.00,,,0.70,WSDL version 426,2013-04-02 23:46:00,
2013-04-02 18:51:00,41.7,38.7,29.44,NE,38,4.4,10.7,89,0.00,,,0.70,WSDL version 426,2013-04-02 23:51:00,
2013-04-02 18:56:00,41.7,38.7,29.44,NE,40,9.6,12.5,89,0.00,,,0.70,WSDL version 426,2013-04-02 23:56:00,
2013-04-02 19:01:00,41.7,38.7,29.44,NE,37,7.4,12.5,89,0.00,,,0.70,WSDL version 426,2013-04-03 00:01:00,
2013-04-02 19:07:00,41.7,38.7,29.44,NE,39,7.3,12.1,89,0.00,,,0.70,WSDL version 426,2013-04-03 00:07:00,
2013-04-02 19:12:00,41.7,38.7,29.41,NE,50,9.9,13.2,89,0.00,,,0.70,WSDL version 426,2013-04-03 00:12:00,
2013-04-02 19:18:00,41.7,38.7,29.41,NE,48,9.1,13.2,89,0.00,,,0.70,WSDL version 426,2013-04-03 00:18:00,
2013-04-02 19:23:00,41.7,38.7,29.41,NE,35,6.2,13.0,89,0.00,,,0.70,WSDL version 426,2013-04-03 00:23:00,
2013-04-02 19:29:00,41.6,38.6,29.41,NE,34,10.0,13.6,89,0.00,,,0.70,WSDL version 426,2013-04-03 00:29:00,
2013-04-02 19:35:00,41.5,38.5,29.41,NE,39,7.5,13.6,89,0.00,,,0.70,WSDL version 426,2013-04-03 00:35:00,
2013-04-02 19:40:00,41.5,38.5,29.41,NE,40,7.9,13.2,89,0.00,,,0.70,WSDL version 426,2013-04-03 00:40:00,
2013-04-02 19:45:00,41.5,38.5,29.44,NE,50,9.1,12.5,89,0.00,,,0.70,WSDL version 426,2013-04-03 00:45:00,
2013-04-02 19:51:00,41.5,38.5,29.44,NE,40,7.9,12.5,89,0.00,,,0.70,WSDL version 426,2013-04-03 00:51:00,
2013-04-02 19:56:00,41.5,38.5,29.41,NNE,25,5.1,10.5,89,0.00,,,0.70,WSDL version 426,2013-04-03 00:56:00,
2013-04-02 20:01:00,41.5,38.7,29.41,NE,38,7.2,14.5,90,0.00,,,0.70,WSDL version 426,2013-04-03 01:01:00,
2013-04-02 20:07:00,41.5,38.5,29.41,NE,42,6.3,14.5,89,0.00,,,0.70,WSDL version 426,2013-04-03 01:07:00,
2013-04-02 20:12:00,41.5,38.5,29.41,NE,38,7.5,12.5,89,0.00,,,0.70,WSDL version 426,2013-04-03 01:12:00,
2013-04-02 20:17:00,41.4,38.4,29.41,NE,45,7.1,11.0,89,0.00,,,0.70,WSDL version 426,2013-04-03 01:17:00,
2013-04-02 20:22:00,41.4,38.3,29.41,NE,35,7.5,15.4,89,0.00,,,0.70,WSDL version 426,2013-04-03 01:22:00,
2013-04-02 20:27:00,41.5,38.5,29.41,NNE,18,4.6,15.4,89,0.00,,,0.70,WSDL version 426,2013-04-03 01:27:00,
2013-04-02 20:32:00,41.4,38.3,29.41,NNE,23,8.2,13.2,89,0.00,,,0.70,WSDL version 426,2013-04-03 01:32:00,
2013-04-02 20:37:00,41.4,38.3,29.41,NE,40,9.1,13.2,89,0.00,,,0.70,WSDL version 426,2013-04-03 01:37:00,
2013-04-02 20:43:00,41.3,38.5,29.41,NE,43,8.4,13.2,90,0.00,,,0.70,WSDL version 426,2013-04-03 01:43:00,
2013-04-02 20:49:00,41.2,38.5,29.41,NE,45,7.3,13.2,90,0.00,,,0.70,WSDL version 426,2013-04-03 01:49:00,
2013-04-02 20:54:00,41.2,38.6,29.41,NE,35,7.8,13.2,91,0.00,,,0.70,WSDL version 426,2013-04-03 01:54:00,
2013-04-02 20:59:00,41.1,38.7,29.44,NE,53,7.2,13.2,91,0.00,,,0.70,WSDL version 426,2013-04-03 01:59:00,
2013-04-02 21:04:00,41.0,38.6,29.44,NNE,31,8.4,12.3,91,0.00,,,0.70,WSDL version 426,2013-04-03 02:04:00,
2013-04-02 21:09:00,41.0,38.8,29.44,NE,34,7.5,12.3,92,0.00,,,0.70,WSDL version 426,2013-04-03 02:09:00,
2013-04-02 21:14:00,41.0,38.9,29.41,NE,45,6.3,12.3,92,0.00,,,0.70,WSDL version 426,2013-04-03 02:14:00,
2013-04-02 21:19:00,41.0,39.1,29.41,NE,55,7.6,12.3,93,0.00,,,0.70,WSDL version 426,2013-04-03 02:19:00,
2013-04-02 21:24:00,41.0,39.2,29.41,NE,53,6.6,12.3,93,0.00,,,0.70,WSDL version 426,2013-04-03 02:24:00,
2013-04-02 21:29:00,40.8,39.4,29.44,NE,48,7.3,11.0,94,0.00,,,0.70,WSDL version 426,2013-04-03 02:29:00,
2013-04-02 21:35:00,40.8,39.5,29.44,NNE,28,7.5,11.0,96,0.00,,,0.70,WSDL version 426,2013-04-03 02:35:00,
2013-04-02 21:42:00,40.8,39.7,29.41,NE,42,10.5,13.0,97,0.00,,,0.70,WSDL version 426,2013-04-03 02:42:00,
2013-04-02 21:47:00,40.6,39.8,29.41,NNE,31,6.6,13.0,97,0.00,,,0.70,WSDL version 426,2013-04-03 02:47:00,
2013-04-02 21:52:00,40.6,39.8,29.41,NE,39,8.4,11.0,97,0.04,,,0.74,WSDL version 426,2013-04-03 02:52:00,
2013-04-02 21:57:00,40.6,39.8,29.41,NE,38,7.5,11.4,97,0.04,,,0.74,WSDL version 426,2013-04-03 02:57:00,
2013-04-02 22:02:00,40.6,40.1,29.41,NE,42,7.6,11.4,98,0.04,,,0.74,WSDL version 426,2013-04-03 03:02:00,
2013-04-02 22:08:00,40.6,40.1,29.41,NE,35,7.0,12.5,98,0.04,,,0.74,WSDL version 426,2013-04-03 03:08:00,
2013-04-02 22:13:00,40.6,40.1,29.44,NNE,28,7.1,10.3,98,0.04,,,0.74,WSDL version 426,2013-04-03 03:13:00,
2013-04-02 22:18:00,40.6,40.1,29.44,NNE,30,6.2,10.1,98,0.04,,,0.74,WSDL version 426,2013-04-03 03:18:00,
2013-04-02 22:23:00,40.5,39.9,29.44,NE,39,7.5,10.5,98,0.04,,,0.74,WSDL version 426,2013-04-03 03:23:00,
2013-04-02 22:29:00,40.5,39.9,29.44,NE,43,7.8,14.5,98,0.04,,,0.74,WSDL version 426,2013-04-03 03:29:00,
2013-04-02 22:35:00,40.5,39.9,29.44,NE,37,5.6,12.5,98,0.04,,,0.74,WSDL version 426,2013-04-03 03:35:00,
2013-04-02 22:40:00,40.5,39.9,29.44,NE,48,6.8,11.9,98,0.04,,,0.74,WSDL version 426,2013-04-03 03:40:00,
2013-04-02 22:45:00,40.5,39.9,29.41,NE,51,6.0,10.3,98,0.04,,,0.74,WSDL version 426,2013-04-03 03:45:00,
2013-04-02 22:52:00,40.5,39.9,29.41,NE,37,7.6,11.0,98,0.00,,,0.74,WSDL version 426,2013-04-03 03:52:00,
2013-04-02 22:58:00,40.5,39.9,29.44,ENE,65,7.2,12.3,98,0.00,,,0.74,WSDL version 426,2013-04-03 03:58:00,
2013-04-02 23:00:00,40.5,39.9,29.44,NE,39,8.5,12.3,98,0.00,,,0.74,WSDL version 426,2013-04-03 04:00:00,
2013-04-02 23:02:00,40.5,39.9,29.44,NE,42,7.5,12.3,98,0.00,,,0.74,WSDL version 426,2013-04-03 04:02:00,
2013-04-02 23:07:00,40.5,39.9,29.44,NE,55,5.7,11.0,98,0.00,,,0.74,WSDL version 426,2013-04-03 04:07:00,
2013-04-02 23:09:00,40.5,39.9,29.44,NE,45,7.4,15.2,98,0.00,,,0.74,WSDL version 426,2013-04-03 04:09:00,
2013-04-02 23:14:00,40.5,39.9,29.44,NE,45,6.5,15.2,98,0.00,,,0.74,WSDL version 426,2013-04-03 04:14:00,
2013-04-02 23:19:00,40.5,39.9,29.44,NE,56,5.4,13.2,98,0.00,,,0.74,WSDL version 426,2013-04-03 04:19:00,
2013-04-02 23:21:00,40.5,39.9,29.44,NE,53,6.8,13.0,98,0.00,,,0.74,WSDL version 426,2013-04-03 04:21:00,
2013-04-02 23:27:00,40.5,39.9,29.41,NE,37,6.4,10.1,98,0.00,,,0.74,WSDL version 426,2013-04-03 04:27:00,
2013-04-02 23:32:00,40.4,39.8,29.41,NE,50,6.3,9.8,98,0.00,,,0.74,WSDL version 426,2013-04-03 04:32:00,
2013-04-02 23:37:00,40.3,39.7,29.41,NE,45,7.1,9.8,98,0.00,,,0.74,WSDL version 426,2013-04-03 04:37:00,
2013-04-02 23:42:00,40.3,39.7,29.41,ENE,58,7.4,11.0,98,0.00,,,0.74,WSDL version 426,2013-04-03 04:42:00,
2013-04-02 23:48:00,40.3,39.7,29.41,NE,48,7.0,11.0,98,0.00,,,0.74,WSDL version 426,2013-04-03 04:48:00,
2013-04-02 23:53:00,40.3,39.7,29.41,NE,45,7.0,12.8,98,0.00,,,0.74,WSDL version 426,2013-04-03 04:53:00,
2013-04-02 23:58:00,40.3,39.7,29.41,NE,43,6.6,12.8,98,0.00,,,0.74,WSDL version 426,2013-04-03 04:58:00,